Flight Track Log - Related Links

Times and Time Zones

All times are in EST time to prevent confusion due to time zone crossing. See the CHH7134 flight status page for this flight to view local times or setup timezone preferences in your user account.

Time Position Orientation Groundspeed Altitude Reporting Facility
EST Latitude Longitude Course Direction KTS MPH feet Rate Location/Type
Sat 11:59:00 PM 30.0940 112.0996 84° East  Level Estimated
Sun 12:00:00 AM 30.0990 112.2050 87° East  Level Estimated
Sun 12:01:00 AM 30.1039 112.3103 87° East  Level Estimated
Sun 12:02:00 AM 30.1087 112.4157 87° East  Level Estimated
Sun 12:03:00 AM 30.1135 112.5211 87° East  Level Estimated
Sun 12:04:00 AM 30.1181 112.6264 87° East  Level Estimated
Sun 12:05:00 AM 30.1227 112.7318 87° East  Level Estimated
Sun 12:06:00 AM 30.1272 112.8372 87° East  Level Estimated
Sun 12:07:00 AM 30.1316 112.9426 87° East  Level Estimated
Sun 12:08:00 AM 30.1359 113.0480 87° East  Level Estimated
Sun 12:09:00 AM 30.1402 113.1535 87° East  Level Estimated
Sun 12:10:00 AM 30.1443 113.2589 87° East  Level Estimated
Sun 12:11:00 AM 30.1484 113.3643 87° East  Level Estimated
Sun 12:12:00 AM 30.1524 113.4698 87° East  Level Estimated
Sun 12:13:00 AM 30.1563 113.5752 88° East  Level Estimated
Sun 12:14:00 AM 30.1601 113.6807 88° East  Level Estimated
Sun 12:15:00 AM 30.1638 113.7862 88° East  Level Estimated
Sun 12:16:00 AM 30.1674 113.8917 88° East  Level Estimated
Sun 12:17:00 AM 30.1710 113.9972 88° East  Level Estimated
Sun 12:18:00 AM 30.1745 114.1027 88° East  Level Estimated
Sun 12:19:00 AM 30.1779 114.2082 88° East  Level Estimated
Sun 12:20:00 AM 30.1812 114.3137 88° East  Level Estimated
Sun 12:21:00 AM 30.1844 114.4192 88° East  Level Estimated
Sun 12:22:00 AM 30.1875 114.5247 88° East  Level Estimated
Sun 12:23:00 AM 30.1906 114.6303 88° East  Level Estimated
Sun 12:24:00 AM 30.1936 114.7358 88° East  Level Estimated
Sun 12:25:00 AM 30.1965 114.8414 88° East  Level Estimated
Sun 12:26:00 AM 30.1993 114.9469 88° East  Level Estimated
Sun 12:27:00 AM 30.2020 115.0525 88° East  Level Estimated
Sun 12:28:00 AM 30.2046 115.1580 88° East  Level Estimated
Sun 12:29:00 AM 30.2072 115.2636 88° East  Level Estimated
Sun 12:30:00 AM 30.2096 115.3692 88° East  Level Estimated
Sun 12:31:00 AM 30.2120 115.4747 88° East  Level Estimated
Sun 12:32:00 AM 30.2143 115.5803 89° East  Level Estimated
Sun 12:33:00 AM 30.2165 115.6859 89° East  Level Estimated
Sun 12:34:00 AM 30.2186 115.7915 89° East  Level Estimated
Sun 12:35:00 AM 30.2207 115.8971 89° East  Level Estimated
Sun 12:36:00 AM 30.2226 116.0027 89° East  Level Estimated
Sun 12:37:00 AM 30.2245 116.1083 89° East  Level Estimated
Sun 12:38:00 AM 30.2263 116.2139 89° East  Level Estimated
Sun 12:39:00 AM 30.2280 116.3195 89° East  Level Estimated
Sun 12:40:00 AM 30.2296 116.4252 89° East  Level Estimated
Sun 12:41:00 AM 30.2311 116.5308 89° East  Level Estimated
Sun 12:42:00 AM 30.2326 116.6364 89° East  Level Estimated
Sun 12:43:00 AM 30.2339 116.7420 89° East  Level Estimated
Sun 12:44:00 AM 30.2352 116.8477 89° East  Level Estimated
Sun 12:45:00 AM 30.2364 116.9533 89° East  Level Estimated
Sun 12:46:00 AM 30.2375 117.0589 89° East  Level Estimated
Sun 12:47:00 AM 30.2385 117.1646 89° East  Level Estimated
Sun 12:48:00 AM 30.2395 117.2702 89° East  Level Estimated
Sun 12:49:00 AM 30.2403 117.3759 89° East  Level Estimated
Sun 12:50:00 AM 30.2411 117.4815 89° East  Level Estimated
Sun 12:51:00 AM 30.2418 117.5872 90° East  Level Estimated
Sun 12:52:00 AM 30.2424 117.6928 90° East  Level Estimated
Sun 12:53:00 AM 30.2429 117.7984 90° East  Level Estimated
Sun 12:54:00 AM 30.2433 117.9041 90° East  Level Estimated
Sun 12:55:00 AM 30.2437 118.0098 90° East  Level Estimated
Sun 12:56:00 AM 30.2439 118.1154 90° East  Level Estimated
Sun 12:57:00 AM 30.2441 118.2210 90° East  Level Estimated
Sun 12:58:00 AM 30.2442 118.3267 90° East  Level Estimated
Sun 12:59:00 AM 30.2442 118.4324 90° East  Level Estimated
Sun 01:00:00 AM 30.2441 118.5380 90° East  Level Estimated
Sun 01:01:00 AM 30.2440 118.6436 90° East  Level Estimated
Sun 01:02:00 AM 30.2437 118.7493 90° East  Level Estimated
Sun 01:03:00 AM 30.2434 118.8549 90° East  Level Estimated
Sun 01:04:00 AM 30.2430 118.9606 90° East  Level Estimated
Sun 01:05:00 AM 30.2425 119.0663 90° East  Level Estimated
Sun 01:06:00 AM 30.2419 119.1719 90° East  Level Estimated
Sun 01:07:00 AM 30.2412 119.2775 90° East  Level Estimated
Sun 01:08:00 AM 30.2404 119.3832 90° East  Level Estimated
Sun 01:09:00 AM 30.2396 119.4888 91° East  Level Estimated
Sun 01:10:00 AM 30.2387 119.5945 91° East  Level Estimated
Sun 01:11:00 AM 30.2377 119.7001 91° East  Level Estimated
Sun 01:12:00 AM 30.2366 119.8057 91° East  Level Estimated
Sun 01:13:00 AM 30.2354 119.9114 91° East  Level Estimated
Sun 01:14:00 AM 30.2341 120.0170 91° East  Level Estimated
Sun 01:15:00 AM 30.2328 120.1226 91° East  Level Estimated
Sun 01:16:00 AM 30.2313 120.2283 91° East  Level Estimated
Sun 01:17:00 AM 30.2298 120.3339 91° East  Level Estimated
Sun 01:18:00 AM 30.2283 120.4317 91° East  Level Estimated
Sun 01:19:00 AM 30.2283 120.4317 319° Northwest  Level Estimated
Sun 01:20:00 AM 30.2283 120.4317 319° Northwest  Level Estimated
Sun 01:21:00 AM 30.2283 120.4317 319° Northwest  Level Estimated
Sun 01:22:00 AM 30.2283 120.4317 319° Northwest  Level Estimated
Sun 01:23:00 AM 30.2283 120.4317 319° Northwest  Level Estimated
Sun 01:24:00 AM 30.2283 120.4317 319° Northwest  Level Estimated
Sun 01:25:00 AM 30.2283 120.4317 319° Northwest  Level Estimated
Sun 01:26:00 AM 30.2283 120.4317 319° Northwest  Level Estimated
Sun 01:27:00 AM 30.2283 120.4317 319° Northwest  Level Estimated

Login

Don't have an account? Register now (free) for customized features, flight alerts, and more!